sensor_id;sensor_type;location;lat;lon;timestamp;P1;durP1;ratioP1;P2;durP2;ratioP2
74401;SDS011;62837;51.082;13.744;2022-09-11T00:00:38;3.60;;;2.90;;
74401;SDS011;62837;51.082;13.744;2022-09-11T00:03:09;3.60;;;1.90;;
74401;SDS011;62837;51.082;13.744;2022-09-11T00:05:41;2.60;;;1.90;;
74401;SDS011;62837;51.082;13.744;2022-09-11T00:08:14;3.90;;;2.60;;
74401;SDS011;62837;51.082;13.744;2022-09-11T00:10:48;4.50;;;2.70;;
74401;SDS011;62837;51.082;13.744;2022-09-11T00:13:19;5.70;;;3.40;;
74401;SDS011;62837;51.082;13.744;2022-09-11T00:15:50;3.80;;;2.40;;
74401;SDS011;62837;51.082;13.744;2022-09-11T00:18:21;3.10;;;1.70;;
74401;SDS011;62837;51.082;13.744;2022-09-11T00:20:56;3.70;;;2.10;;
74401;SDS011;62837;51.082;13.744;2022-09-11T00:23:27;3.10;;;1.70;;
74401;SDS011;62837;51.082;13.744;2022-09-11T00:26:00;4.80;;;1.80;;
74401;SDS011;62837;51.082;13.744;2022-09-11T00:28:32;2.10;;;1.60;;
74401;SDS011;62837;51.082;13.744;2022-09-11T00:31:05;2.10;;;0.90;;
74401;SDS011;62837;51.082;13.744;2022-09-11T00:33:39;3.30;;;1.10;;
74401;SDS011;62837;51.082;13.744;2022-09-11T00:36:11;3.00;;;1.50;;
74401;SDS011;62837;51.082;13.744;2022-09-11T00:38:45;2.90;;;1.20;;
74401;SDS011;62837;51.082;13.744;2022-09-11T00:41:17;3.50;;;2.00;;
74401;SDS011;62837;51.082;13.744;2022-09-11T00:44:00;2.40;;;1.30;;
74401;SDS011;62837;51.082;13.744;2022-09-11T00:46:35;4.00;;;1.30;;
74401;SDS011;62837;51.082;13.744;2022-09-11T00:49:14;4.70;;;1.60;;
74401;SDS011;62837;51.082;13.744;2022-09-11T00:51:52;2.90;;;1.20;;
74401;SDS011;62837;51.082;13.744;2022-09-11T00:54:26;2.10;;;1.10;;
74401;SDS011;62837;51.082;13.744;2022-09-11T00:57:01;2.20;;;1.10;;
74401;SDS011;62837;51.082;13.744;2022-09-11T00:59:34;3.70;;;1.40;;
74401;SDS011;62837;51.082;13.744;2022-09-11T01:02:07;2.00;;;1.10;;
74401;SDS011;62837;51.082;13.744;2022-09-11T01:04:41;3.30;;;1.90;;
74401;SDS011;62837;51.082;13.744;2022-09-11T01:07:11;4.70;;;1.70;;
74401;SDS011;62837;51.082;13.744;2022-09-11T01:09:44;3.70;;;2.30;;
74401;SDS011;62837;51.082;13.744;2022-09-11T01:12:18;2.20;;;1.10;;
74401;SDS011;62837;51.082;13.744;2022-09-11T01:14:58;2.40;;;1.40;;
74401;SDS011;62837;51.082;13.744;2022-09-11T01:17:32;2.30;;;1.10;;
74401;SDS011;62837;51.082;13.744;2022-09-11T01:20:22;4.00;;;2.10;;
74401;SDS011;62837;51.082;13.744;2022-09-11T01:23:10;3.80;;;2.80;;
74401;SDS011;62837;51.082;13.744;2022-09-11T01:29:06;2.50;;;1.60;;
74401;SDS011;62837;51.082;13.744;2022-09-11T01:31:47;3.30;;;1.00;;
74401;SDS011;62837;51.082;13.744;2022-09-11T01:34:27;3.80;;;1.40;;
74401;SDS011;62837;51.082;13.744;2022-09-11T01:37:04;2.50;;;1.10;;
74401;SDS011;62837;51.082;13.744;2022-09-11T01:39:39;2.60;;;1.50;;
74401;SDS011;62837;51.082;13.744;2022-09-11T01:42:16;2.70;;;1.40;;
74401;SDS011;62837;51.082;13.744;2022-09-11T01:44:51;2.00;;;0.90;;
74401;SDS011;62837;51.082;13.744;2022-09-11T01:47:25;1.60;;;1.00;;
74401;SDS011;62837;51.082;13.744;2022-09-11T01:50:01;1.70;;;1.00;;
74401;SDS011;62837;51.082;13.744;2022-09-11T01:52:38;1.80;;;1.00;;
74401;SDS011;62837;51.082;13.744;2022-09-11T01:55:14;3.60;;;1.60;;
74401;SDS011;62837;51.082;13.744;2022-09-11T01:57:48;4.30;;;0.70;;
74401;SDS011;62837;51.082;13.744;2022-09-11T02:00:24;3.80;;;0.90;;
74401;SDS011;62837;51.082;13.744;2022-09-11T02:02:55;2.30;;;1.00;;
74401;SDS011;62837;51.082;13.744;2022-09-11T02:05:34;2.20;;;1.20;;
74401;SDS011;62837;51.082;13.744;2022-09-11T02:08:16;2.50;;;1.30;;
74401;SDS011;62837;51.082;13.744;2022-09-11T02:10:51;2.10;;;0.90;;
74401;SDS011;62837;51.082;13.744;2022-09-11T02:13:31;2.20;;;1.00;;
74401;SDS011;62837;51.082;13.744;2022-09-11T02:16:09;1.80;;;0.90;;
74401;SDS011;62837;51.082;13.744;2022-09-11T02:18:50;3.50;;;0.90;;
74401;SDS011;62837;51.082;13.744;2022-09-11T02:21:28;3.00;;;0.60;;
74401;SDS011;62837;51.082;13.744;2022-09-11T02:26:31;1.80;;;0.60;;
74401;SDS011;62837;51.082;13.744;2022-09-11T02:29:06;1.80;;;1.10;;
74401;SDS011;62837;51.082;13.744;2022-09-11T02:31:38;1.80;;;0.90;;
74401;SDS011;62837;51.082;13.744;2022-09-11T02:36:52;2.40;;;0.80;;
74401;SDS011;62837;51.082;13.744;2022-09-11T02:39:38;1.20;;;0.50;;
74401;SDS011;62837;51.082;13.744;2022-09-11T02:42:28;1.60;;;0.70;;
74401;SDS011;62837;51.082;13.744;2022-09-11T02:45:11;2.10;;;0.60;;
74401;SDS011;62837;51.082;13.744;2022-09-11T02:47:53;1.50;;;1.00;;
74401;SDS011;62837;51.082;13.744;2022-09-11T02:50:35;2.60;;;1.80;;
74401;SDS011;62837;51.082;13.744;2022-09-11T02:53:12;3.10;;;0.90;;
74401;SDS011;62837;51.082;13.744;2022-09-11T02:55:51;2.00;;;1.30;;
74401;SDS011;62837;51.082;13.744;2022-09-11T02:58:33;3.10;;;1.60;;
74401;SDS011;62837;51.082;13.744;2022-09-11T03:01:08;1.70;;;0.90;;
74401;SDS011;62837;51.082;13.744;2022-09-11T03:03:39;3.10;;;1.00;;
74401;SDS011;62837;51.082;13.744;2022-09-11T03:06:14;2.10;;;0.90;;
74401;SDS011;62837;51.082;13.744;2022-09-11T03:08:48;1.10;;;0.80;;
74401;SDS011;62837;51.082;13.744;2022-09-11T03:11:19;3.10;;;1.00;;
74401;SDS011;62837;51.082;13.744;2022-09-11T03:13:50;2.40;;;0.90;;
74401;SDS011;62837;51.082;13.744;2022-09-11T03:16:21;4.20;;;1.00;;
74401;SDS011;62837;51.082;13.744;2022-09-11T03:18:52;3.20;;;1.20;;
74401;SDS011;62837;51.082;13.744;2022-09-11T03:21:23;2.40;;;1.50;;
74401;SDS011;62837;51.082;13.744;2022-09-11T03:23:54;3.20;;;1.30;;
74401;SDS011;62837;51.082;13.744;2022-09-11T03:26:25;1.80;;;1.20;;
74401;SDS011;62837;51.082;13.744;2022-09-11T03:28:57;3.90;;;0.90;;
74401;SDS011;62837;51.082;13.744;2022-09-11T03:31:28;2.60;;;1.30;;
74401;SDS011;62837;51.082;13.744;2022-09-11T03:34:03;3.90;;;1.30;;
74401;SDS011;62837;51.082;13.744;2022-09-11T03:36:35;3.70;;;1.60;;
74401;SDS011;62837;51.082;13.744;2022-09-11T03:39:07;3.50;;;1.20;;
74401;SDS011;62837;51.082;13.744;2022-09-11T03:41:37;15.50;;;1.80;;
74401;SDS011;62837;51.082;13.744;2022-09-11T03:44:08;3.80;;;1.70;;
74401;SDS011;62837;51.082;13.744;2022-09-11T03:46:40;5.70;;;2.50;;
74401;SDS011;62837;51.082;13.744;2022-09-11T03:49:11;3.30;;;1.40;;
74401;SDS011;62837;51.082;13.744;2022-09-11T03:51:42;2.20;;;1.10;;
74401;SDS011;62837;51.082;13.744;2022-09-11T03:54:14;3.10;;;0.70;;
74401;SDS011;62837;51.082;13.744;2022-09-11T03:56:45;2.90;;;1.40;;
74401;SDS011;62837;51.082;13.744;2022-09-11T03:59:16;2.30;;;1.10;;
74401;SDS011;62837;51.082;13.744;2022-09-11T04:01:47;1.90;;;1.20;;
74401;SDS011;62837;51.082;13.744;2022-09-11T04:04:19;3.40;;;1.30;;
74401;SDS011;62837;51.082;13.744;2022-09-11T04:06:50;1.50;;;1.00;;
74401;SDS011;62837;51.082;13.744;2022-09-11T04:09:22;2.00;;;0.90;;
74401;SDS011;62837;51.082;13.744;2022-09-11T04:11:54;2.10;;;1.00;;
74401;SDS011;62837;51.082;13.744;2022-09-11T04:14:25;3.40;;;1.00;;
74401;SDS011;62837;51.082;13.744;2022-09-11T04:16:57;2.10;;;1.10;;
74401;SDS011;62837;51.082;13.744;2022-09-11T04:19:28;2.70;;;1.00;;
74401;SDS011;62837;51.082;13.744;2022-09-11T04:21:59;3.60;;;1.70;;
74401;SDS011;62837;51.082;13.744;2022-09-11T04:24:31;2.60;;;1.70;;
74401;SDS011;62837;51.082;13.744;2022-09-11T04:27:02;3.50;;;1.90;;
74401;SDS011;62837;51.082;13.744;2022-09-11T04:29:34;3.40;;;1.80;;
74401;SDS011;62837;51.082;13.744;2022-09-11T04:32:07;4.90;;;1.40;;
74401;SDS011;62837;51.082;13.744;2022-09-11T04:34:39;2.20;;;1.40;;
74401;SDS011;62837;51.082;13.744;2022-09-11T04:37:09;3.20;;;1.50;;
74401;SDS011;62837;51.082;13.744;2022-09-11T04:39:41;2.10;;;1.10;;
74401;SDS011;62837;51.082;13.744;2022-09-11T04:42:11;4.20;;;1.40;;
74401;SDS011;62837;51.082;13.744;2022-09-11T04:44:42;2.70;;;1.80;;
74401;SDS011;62837;51.082;13.744;2022-09-11T04:47:14;3.00;;;1.60;;
74401;SDS011;62837;51.082;13.744;2022-09-11T04:49:45;4.40;;;1.20;;
74401;SDS011;62837;51.082;13.744;2022-09-11T04:52:16;1.90;;;1.20;;
74401;SDS011;62837;51.082;13.744;2022-09-11T04:54:47;2.30;;;1.30;;
74401;SDS011;62837;51.082;13.744;2022-09-11T04:57:18;2.10;;;1.10;;
74401;SDS011;62837;51.082;13.744;2022-09-11T04:59:49;2.70;;;1.30;;
74401;SDS011;62837;51.082;13.744;2022-09-11T05:02:20;2.50;;;1.70;;
74401;SDS011;62837;51.082;13.744;2022-09-11T05:04:53;2.40;;;1.40;;
74401;SDS011;62837;51.082;13.744;2022-09-11T05:07:25;3.30;;;1.20;;
74401;SDS011;62837;51.082;13.744;2022-09-11T05:09:58;3.60;;;1.50;;
74401;SDS011;62837;51.082;13.744;2022-09-11T05:12:29;4.00;;;1.90;;
74401;SDS011;62837;51.082;13.744;2022-09-11T05:15:00;3.90;;;1.80;;
74401;SDS011;62837;51.082;13.744;2022-09-11T05:17:31;3.00;;;1.40;;
74401;SDS011;62837;51.082;13.744;2022-09-11T05:20:03;2.80;;;1.30;;
74401;SDS011;62837;51.082;13.744;2022-09-11T05:22:38;3.30;;;1.50;;
74401;SDS011;62837;51.082;13.744;2022-09-11T05:25:09;1.90;;;1.00;;
74401;SDS011;62837;51.082;13.744;2022-09-11T05:27:40;2.00;;;1.10;;
74401;SDS011;62837;51.082;13.744;2022-09-11T05:30:12;1.80;;;1.30;;
74401;SDS011;62837;51.082;13.744;2022-09-11T05:32:43;1.70;;;0.90;;
74401;SDS011;62837;51.082;13.744;2022-09-11T05:35:15;2.20;;;1.30;;
74401;SDS011;62837;51.082;13.744;2022-09-11T05:37:47;7.40;;;3.70;;
74401;SDS011;62837;51.082;13.744;2022-09-11T05:40:18;2.90;;;2.20;;
74401;SDS011;62837;51.082;13.744;2022-09-11T05:42:48;3.10;;;1.80;;
74401;SDS011;62837;51.082;13.744;2022-09-11T05:45:20;4.00;;;2.10;;
74401;SDS011;62837;51.082;13.744;2022-09-11T05:50:23;3.30;;;1.70;;
74401;SDS011;62837;51.082;13.744;2022-09-11T05:52:54;2.90;;;1.70;;
74401;SDS011;62837;51.082;13.744;2022-09-11T05:55:24;3.30;;;1.60;;
74401;SDS011;62837;51.082;13.744;2022-09-11T05:57:56;3.20;;;1.70;;
74401;SDS011;62837;51.082;13.744;2022-09-11T06:00:28;4.90;;;2.40;;
74401;SDS011;62837;51.082;13.744;2022-09-11T06:02:59;3.30;;;2.00;;
74401;SDS011;62837;51.082;13.744;2022-09-11T06:05:30;4.90;;;3.00;;
74401;SDS011;62837;51.082;13.744;2022-09-11T06:08:03;2.70;;;1.80;;
74401;SDS011;62837;51.082;13.744;2022-09-11T06:10:34;3.30;;;2.10;;
74401;SDS011;62837;51.082;13.744;2022-09-11T06:13:06;5.50;;;4.00;;
74401;SDS011;62837;51.082;13.744;2022-09-11T06:15:38;3.80;;;1.80;;
74401;SDS011;62837;51.082;13.744;2022-09-11T06:18:14;3.00;;;1.40;;
74401;SDS011;62837;51.082;13.744;2022-09-11T06:20:54;2.40;;;1.70;;
74401;SDS011;62837;51.082;13.744;2022-09-11T06:23:26;3.50;;;1.40;;
74401;SDS011;62837;51.082;13.744;2022-09-11T06:26:02;5.30;;;2.40;;
74401;SDS011;62837;51.082;13.744;2022-09-11T06:28:37;2.70;;;1.30;;
74401;SDS011;62837;51.082;13.744;2022-09-11T06:31:11;2.70;;;1.90;;
74401;SDS011;62837;51.082;13.744;2022-09-11T06:33:43;2.70;;;1.50;;
74401;SDS011;62837;51.082;13.744;2022-09-11T06:36:15;3.80;;;2.60;;
74401;SDS011;62837;51.082;13.744;2022-09-11T06:38:50;2.90;;;1.60;;
74401;SDS011;62837;51.082;13.744;2022-09-11T06:41:24;4.40;;;1.10;;
74401;SDS011;62837;51.082;13.744;2022-09-11T06:44:04;3.20;;;2.00;;
74401;SDS011;62837;51.082;13.744;2022-09-11T06:46:37;5.30;;;3.70;;
74401;SDS011;62837;51.082;13.744;2022-09-11T06:49:09;2.10;;;1.10;;
74401;SDS011;62837;51.082;13.744;2022-09-11T06:51:58;3.40;;;2.30;;
74401;SDS011;62837;51.082;13.744;2022-09-11T06:57:02;3.00;;;1.80;;
74401;SDS011;62837;51.082;13.744;2022-09-11T06:59:33;1.90;;;1.30;;
74401;SDS011;62837;51.082;13.744;2022-09-11T07:02:03;3.30;;;1.40;;
74401;SDS011;62837;51.082;13.744;2022-09-11T07:04:34;2.90;;;1.50;;
74401;SDS011;62837;51.082;13.744;2022-09-11T07:07:06;4.00;;;1.60;;
74401;SDS011;62837;51.082;13.744;2022-09-11T07:09:37;2.50;;;1.80;;
74401;SDS011;62837;51.082;13.744;2022-09-11T07:12:08;4.40;;;2.60;;
74401;SDS011;62837;51.082;13.744;2022-09-11T07:14:39;5.10;;;2.50;;
74401;SDS011;62837;51.082;13.744;2022-09-11T07:17:14;4.20;;;1.60;;
74401;SDS011;62837;51.082;13.744;2022-09-11T07:19:47;2.80;;;2.30;;
74401;SDS011;62837;51.082;13.744;2022-09-11T07:22:18;2.60;;;1.40;;
74401;SDS011;62837;51.082;13.744;2022-09-11T07:24:49;3.60;;;2.70;;
74401;SDS011;62837;51.082;13.744;2022-09-11T07:27:21;3.40;;;2.90;;
74401;SDS011;62837;51.082;13.744;2022-09-11T07:29:52;5.00;;;2.00;;
74401;SDS011;62837;51.082;13.744;2022-09-11T07:32:24;6.80;;;2.00;;
74401;SDS011;62837;51.082;13.744;2022-09-11T07:34:54;3.80;;;1.90;;
74401;SDS011;62837;51.082;13.744;2022-09-11T07:37:25;3.00;;;2.30;;
74401;SDS011;62837;51.082;13.744;2022-09-11T07:39:56;6.10;;;2.60;;
74401;SDS011;62837;51.082;13.744;2022-09-11T07:42:29;3.10;;;1.90;;
74401;SDS011;62837;51.082;13.744;2022-09-11T07:45:00;6.20;;;2.30;;
74401;SDS011;62837;51.082;13.744;2022-09-11T07:47:32;2.60;;;1.80;;
74401;SDS011;62837;51.082;13.744;2022-09-11T07:50:03;3.00;;;1.50;;
74401;SDS011;62837;51.082;13.744;2022-09-11T07:52:36;3.90;;;2.50;;
74401;SDS011;62837;51.082;13.744;2022-09-11T07:55:07;3.80;;;2.80;;
74401;SDS011;62837;51.082;13.744;2022-09-11T07:57:39;5.80;;;2.80;;
74401;SDS011;62837;51.082;13.744;2022-09-11T08:00:14;5.30;;;2.10;;
74401;SDS011;62837;51.082;13.744;2022-09-11T08:02:48;4.40;;;2.20;;
74401;SDS011;62837;51.082;13.744;2022-09-11T08:05:28;3.20;;;2.00;;
74401;SDS011;62837;51.082;13.744;2022-09-11T08:07:59;2.50;;;1.30;;
74401;SDS011;62837;51.082;13.744;2022-09-11T08:10:34;3.10;;;1.60;;
74401;SDS011;62837;51.082;13.744;2022-09-11T08:13:08;4.60;;;1.70;;
74401;SDS011;62837;51.082;13.744;2022-09-11T08:15:46;4.30;;;2.20;;
74401;SDS011;62837;51.082;13.744;2022-09-11T08:18:18;2.50;;;1.60;;
74401;SDS011;62837;51.082;13.744;2022-09-11T08:20:49;2.90;;;2.40;;
74401;SDS011;62837;51.082;13.744;2022-09-11T08:23:21;3.20;;;2.00;;
74401;SDS011;62837;51.082;13.744;2022-09-11T08:25:52;4.30;;;2.50;;
74401;SDS011;62837;51.082;13.744;2022-09-11T08:28:24;4.30;;;1.60;;
74401;SDS011;62837;51.082;13.744;2022-09-11T08:30:56;1.50;;;1.10;;
74401;SDS011;62837;51.082;13.744;2022-09-11T08:33:29;5.40;;;2.80;;
74401;SDS011;62837;51.082;13.744;2022-09-11T08:36:03;4.00;;;1.90;;
74401;SDS011;62837;51.082;13.744;2022-09-11T08:38:36;3.80;;;2.20;;
74401;SDS011;62837;51.082;13.744;2022-09-11T08:41:11;3.90;;;2.30;;
74401;SDS011;62837;51.082;13.744;2022-09-11T08:43:56;2.60;;;1.80;;
74401;SDS011;62837;51.082;13.744;2022-09-11T08:46:32;6.00;;;2.90;;
74401;SDS011;62837;51.082;13.744;2022-09-11T08:49:09;7.20;;;2.60;;
74401;SDS011;62837;51.082;13.744;2022-09-11T08:51:47;7.10;;;4.10;;
74401;SDS011;62837;51.082;13.744;2022-09-11T08:54:21;8.30;;;4.40;;
74401;SDS011;62837;51.082;13.744;2022-09-11T08:57:00;11.00;;;5.70;;
74401;SDS011;62837;51.082;13.744;2022-09-11T08:59:46;5.10;;;3.40;;
74401;SDS011;62837;51.082;13.744;2022-09-11T09:02:39;6.80;;;5.00;;
74401;SDS011;62837;51.082;13.744;2022-09-11T09:05:36;7.90;;;4.60;;
74401;SDS011;62837;51.082;13.744;2022-09-11T09:08:17;6.10;;;4.10;;
74401;SDS011;62837;51.082;13.744;2022-09-11T09:10:58;6.30;;;3.80;;
74401;SDS011;62837;51.082;13.744;2022-09-11T09:13:40;9.50;;;5.90;;
74401;SDS011;62837;51.082;13.744;2022-09-11T09:16:30;12.30;;;6.50;;
74401;SDS011;62837;51.082;13.744;2022-09-11T09:19:12;9.10;;;4.80;;
74401;SDS011;62837;51.082;13.744;2022-09-11T09:21:48;9.80;;;6.30;;
74401;SDS011;62837;51.082;13.744;2022-09-11T09:24:31;7.70;;;3.80;;
74401;SDS011;62837;51.082;13.744;2022-09-11T09:27:17;8.20;;;4.70;;
74401;SDS011;62837;51.082;13.744;2022-09-11T09:29:51;8.60;;;5.00;;
74401;SDS011;62837;51.082;13.744;2022-09-11T09:32:28;8.00;;;4.60;;
74401;SDS011;62837;51.082;13.744;2022-09-11T09:35:03;8.70;;;5.50;;
74401;SDS011;62837;51.082;13.744;2022-09-11T09:37:41;7.40;;;5.40;;
74401;SDS011;62837;51.082;13.744;2022-09-11T09:40:14;9.70;;;6.10;;
74401;SDS011;62837;51.082;13.744;2022-09-11T09:43:02;8.40;;;5.30;;
74401;SDS011;62837;51.082;13.744;2022-09-11T09:45:51;8.30;;;6.00;;
74401;SDS011;62837;51.082;13.744;2022-09-11T09:48:32;10.20;;;6.40;;
74401;SDS011;62837;51.082;13.744;2022-09-11T09:51:08;7.80;;;5.50;;
74401;SDS011;62837;51.082;13.744;2022-09-11T09:53:42;8.30;;;6.10;;
74401;SDS011;62837;51.082;13.744;2022-09-11T09:56:18;7.90;;;5.90;;
74401;SDS011;62837;51.082;13.744;2022-09-11T09:58:53;7.70;;;5.70;;
74401;SDS011;62837;51.082;13.744;2022-09-11T10:01:44;10.30;;;6.80;;
74401;SDS011;62837;51.082;13.744;2022-09-11T10:04:20;7.10;;;5.80;;
74401;SDS011;62837;51.082;13.744;2022-09-11T10:07:04;8.70;;;6.10;;
74401;SDS011;62837;51.082;13.744;2022-09-11T10:09:42;8.70;;;6.30;;
74401;SDS011;62837;51.082;13.744;2022-09-11T10:12:15;10.40;;;6.60;;
74401;SDS011;62837;51.082;13.744;2022-09-11T10:14:51;8.60;;;6.50;;
74401;SDS011;62837;51.082;13.744;2022-09-11T10:17:29;7.30;;;5.70;;
74401;SDS011;62837;51.082;13.744;2022-09-11T10:20:18;7.90;;;5.70;;
74401;SDS011;62837;51.082;13.744;2022-09-11T10:25:23;9.20;;;7.20;;
74401;SDS011;62837;51.082;13.744;2022-09-11T10:27:59;8.40;;;5.80;;
74401;SDS011;62837;51.082;13.744;2022-09-11T10:30:36;8.90;;;5.80;;
74401;SDS011;62837;51.082;13.744;2022-09-11T10:33:14;13.60;;;9.90;;
74401;SDS011;62837;51.082;13.744;2022-09-11T10:35:51;14.50;;;9.10;;
74401;SDS011;62837;51.082;13.744;2022-09-11T10:38:23;10.20;;;6.90;;
74401;SDS011;62837;51.082;13.744;2022-09-11T10:41:03;9.80;;;7.00;;
74401;SDS011;62837;51.082;13.744;2022-09-11T10:43:39;8.00;;;5.60;;
74401;SDS011;62837;51.082;13.744;2022-09-11T10:46:23;9.20;;;6.20;;
74401;SDS011;62837;51.082;13.744;2022-09-11T10:48:57;7.80;;;6.20;;
74401;SDS011;62837;51.082;13.744;2022-09-11T10:51:36;8.70;;;6.70;;
74401;SDS011;62837;51.082;13.744;2022-09-11T10:54:16;7.90;;;5.50;;
74401;SDS011;62837;51.082;13.744;2022-09-11T10:57:01;6.70;;;5.40;;
74401;SDS011;62837;51.082;13.744;2022-09-11T10:59:41;7.90;;;5.70;;
74401;SDS011;62837;51.082;13.744;2022-09-11T11:04:56;11.60;;;5.30;;
74401;SDS011;62837;51.082;13.744;2022-09-11T11:07:34;9.50;;;6.10;;
74401;SDS011;62837;51.082;13.744;2022-09-11T11:10:24;9.30;;;5.20;;
74401;SDS011;62837;51.082;13.744;2022-09-11T11:13:08;8.70;;;5.40;;
74401;SDS011;62837;51.082;13.744;2022-09-11T11:15:53;4.60;;;2.60;;
74401;SDS011;62837;51.082;13.744;2022-09-11T11:18:35;5.90;;;4.30;;
74401;SDS011;62837;51.082;13.744;2022-09-11T11:21:23;8.20;;;5.60;;
74401;SDS011;62837;51.082;13.744;2022-09-11T11:24:08;5.40;;;4.00;;
74401;SDS011;62837;51.082;13.744;2022-09-11T11:26:54;7.70;;;4.60;;
74401;SDS011;62837;51.082;13.744;2022-09-11T11:29:41;6.30;;;4.20;;
74401;SDS011;62837;51.082;13.744;2022-09-11T11:32:32;7.10;;;4.60;;
74401;SDS011;62837;51.082;13.744;2022-09-11T11:35:21;6.80;;;4.10;;
74401;SDS011;62837;51.082;13.744;2022-09-11T11:37:58;9.20;;;6.90;;
74401;SDS011;62837;51.082;13.744;2022-09-11T11:40:35;7.20;;;5.00;;
74401;SDS011;62837;51.082;13.744;2022-09-11T11:43:13;8.00;;;5.00;;
74401;SDS011;62837;51.082;13.744;2022-09-11T11:45:49;6.20;;;5.00;;
74401;SDS011;62837;51.082;13.744;2022-09-11T11:48:23;8.50;;;5.30;;
74401;SDS011;62837;51.082;13.744;2022-09-11T11:50:58;6.30;;;3.80;;
74401;SDS011;62837;51.082;13.744;2022-09-11T11:53:35;6.50;;;5.00;;
74401;SDS011;62837;51.082;13.744;2022-09-11T11:56:12;7.80;;;5.20;;
74401;SDS011;62837;51.082;13.744;2022-09-11T11:58:50;7.70;;;6.00;;
74401;SDS011;62837;51.082;13.744;2022-09-11T12:01:34;8.80;;;5.10;;
74401;SDS011;62837;51.082;13.744;2022-09-11T12:04:11;6.90;;;4.40;;
74401;SDS011;62837;51.082;13.744;2022-09-11T12:06:53;6.10;;;4.30;;
74401;SDS011;62837;51.082;13.744;2022-09-11T12:09:24;6.20;;;4.10;;
74401;SDS011;62837;51.082;13.744;2022-09-11T12:12:04;8.10;;;3.70;;
74401;SDS011;62837;51.082;13.744;2022-09-11T12:14:36;5.80;;;3.80;;
74401;SDS011;62837;51.082;13.744;2022-09-11T12:17:17;4.80;;;3.20;;
74401;SDS011;62837;51.082;13.744;2022-09-11T12:22:58;5.70;;;3.80;;
74401;SDS011;62837;51.082;13.744;2022-09-11T12:28:21;5.80;;;4.40;;
74401;SDS011;62837;51.082;13.744;2022-09-11T12:30:57;5.70;;;3.90;;
74401;SDS011;62837;51.082;13.744;2022-09-11T12:33:48;5.30;;;3.40;;
74401;SDS011;62837;51.082;13.744;2022-09-11T12:36:24;4.50;;;3.30;;
74401;SDS011;62837;51.082;13.744;2022-09-11T12:39:01;3.80;;;2.50;;
74401;SDS011;62837;51.082;13.744;2022-09-11T12:41:46;5.10;;;2.80;;
74401;SDS011;62837;51.082;13.744;2022-09-11T12:47:22;7.70;;;5.30;;
74401;SDS011;62837;51.082;13.744;2022-09-11T12:49:56;6.90;;;4.30;;
74401;SDS011;62837;51.082;13.744;2022-09-11T12:52:35;6.80;;;4.10;;
74401;SDS011;62837;51.082;13.744;2022-09-11T12:55:25;6.70;;;4.50;;
74401;SDS011;62837;51.082;13.744;2022-09-11T12:58:01;6.30;;;4.10;;
74401;SDS011;62837;51.082;13.744;2022-09-11T13:00:36;5.30;;;3.70;;
74401;SDS011;62837;51.082;13.744;2022-09-11T13:03:15;4.90;;;3.50;;
74401;SDS011;62837;51.082;13.744;2022-09-11T13:05:52;4.00;;;2.90;;
74401;SDS011;62837;51.082;13.744;2022-09-11T13:08:27;6.10;;;3.80;;
74401;SDS011;62837;51.082;13.744;2022-09-11T13:17:20;5.80;;;4.40;;
74401;SDS011;62837;51.082;13.744;2022-09-11T13:19:56;6.00;;;3.60;;
74401;SDS011;62837;51.082;13.744;2022-09-11T13:22:47;9.60;;;5.50;;
74401;SDS011;62837;51.082;13.744;2022-09-11T13:25:25;4.80;;;3.70;;
74401;SDS011;62837;51.082;13.744;2022-09-11T13:27:59;5.40;;;3.30;;
74401;SDS011;62837;51.082;13.744;2022-09-11T13:30:34;6.10;;;3.90;;
74401;SDS011;62837;51.082;13.744;2022-09-11T13:33:05;6.00;;;3.80;;
74401;SDS011;62837;51.082;13.744;2022-09-11T13:35:45;8.80;;;3.50;;
74401;SDS011;62837;51.082;13.744;2022-09-11T13:38:16;7.20;;;3.10;;
74401;SDS011;62837;51.082;13.744;2022-09-11T13:40:51;7.10;;;4.00;;
74401;SDS011;62837;51.082;13.744;2022-09-11T13:43:25;8.10;;;5.10;;
74401;SDS011;62837;51.082;13.744;2022-09-11T13:46:14;5.80;;;3.10;;
74401;SDS011;62837;51.082;13.744;2022-09-11T13:48:49;5.40;;;3.00;;
74401;SDS011;62837;51.082;13.744;2022-09-11T13:51:25;5.30;;;3.80;;
74401;SDS011;62837;51.082;13.744;2022-09-11T13:54:02;7.60;;;4.30;;
74401;SDS011;62837;51.082;13.744;2022-09-11T13:56:40;7.50;;;3.90;;
74401;SDS011;62837;51.082;13.744;2022-09-11T14:02:13;5.90;;;3.60;;
74401;SDS011;62837;51.082;13.744;2022-09-11T14:05:09;5.10;;;3.60;;
74401;SDS011;62837;51.082;13.744;2022-09-11T14:07:48;5.60;;;3.80;;
74401;SDS011;62837;51.082;13.744;2022-09-11T14:10:31;7.60;;;3.50;;
74401;SDS011;62837;51.082;13.744;2022-09-11T14:13:10;4.80;;;2.90;;
74401;SDS011;62837;51.082;13.744;2022-09-11T14:15:48;5.40;;;3.20;;
74401;SDS011;62837;51.082;13.744;2022-09-11T14:18:24;4.40;;;2.80;;
74401;SDS011;62837;51.082;13.744;2022-09-11T14:20:58;5.10;;;2.50;;
74401;SDS011;62837;51.082;13.744;2022-09-11T14:23:33;5.10;;;2.70;;
74401;SDS011;62837;51.082;13.744;2022-09-11T14:26:12;6.60;;;3.30;;
74401;SDS011;62837;51.082;13.744;2022-09-11T14:31:29;5.60;;;2.40;;
74401;SDS011;62837;51.082;13.744;2022-09-11T14:34:15;6.90;;;3.00;;
74401;SDS011;62837;51.082;13.744;2022-09-11T14:36:49;6.90;;;3.20;;
74401;SDS011;62837;51.082;13.744;2022-09-11T14:39:27;4.90;;;3.50;;
74401;SDS011;62837;51.082;13.744;2022-09-11T14:42:01;4.20;;;2.60;;
74401;SDS011;62837;51.082;13.744;2022-09-11T14:44:35;6.10;;;3.40;;
74401;SDS011;62837;51.082;13.744;2022-09-11T14:47:09;3.60;;;2.70;;
74401;SDS011;62837;51.082;13.744;2022-09-11T14:49:43;4.10;;;3.10;;
74401;SDS011;62837;51.082;13.744;2022-09-11T14:52:15;4.20;;;3.10;;
74401;SDS011;62837;51.082;13.744;2022-09-11T14:54:47;4.90;;;2.70;;
74401;SDS011;62837;51.082;13.744;2022-09-11T14:57:18;5.80;;;2.70;;
74401;SDS011;62837;51.082;13.744;2022-09-11T14:59:50;4.30;;;2.80;;
74401;SDS011;62837;51.082;13.744;2022-09-11T15:02:22;4.40;;;2.30;;
74401;SDS011;62837;51.082;13.744;2022-09-11T15:04:56;5.80;;;3.00;;
74401;SDS011;62837;51.082;13.744;2022-09-11T15:07:27;4.20;;;2.60;;
74401;SDS011;62837;51.082;13.744;2022-09-11T15:09:58;4.90;;;2.60;;
74401;SDS011;62837;51.082;13.744;2022-09-11T15:12:29;3.80;;;1.70;;
74401;SDS011;62837;51.082;13.744;2022-09-11T15:14:59;5.60;;;2.40;;
74401;SDS011;62837;51.082;13.744;2022-09-11T15:17:31;3.80;;;2.60;;
74401;SDS011;62837;51.082;13.744;2022-09-11T15:20:03;4.10;;;2.50;;
74401;SDS011;62837;51.082;13.744;2022-09-11T15:22:36;4.50;;;2.50;;
74401;SDS011;62837;51.082;13.744;2022-09-11T15:25:07;4.20;;;2.80;;
74401;SDS011;62837;51.082;13.744;2022-09-11T15:27:38;4.60;;;2.40;;
74401;SDS011;62837;51.082;13.744;2022-09-11T15:30:09;6.40;;;2.40;;
74401;SDS011;62837;51.082;13.744;2022-09-11T15:32:41;3.90;;;2.40;;
74401;SDS011;62837;51.082;13.744;2022-09-11T15:35:12;3.50;;;1.80;;
74401;SDS011;62837;51.082;13.744;2022-09-11T15:37:45;4.00;;;2.40;;
74401;SDS011;62837;51.082;13.744;2022-09-11T15:40:16;2.70;;;2.00;;
74401;SDS011;62837;51.082;13.744;2022-09-11T15:42:47;4.90;;;2.50;;
74401;SDS011;62837;51.082;13.744;2022-09-11T15:45:18;4.60;;;2.30;;
74401;SDS011;62837;51.082;13.744;2022-09-11T15:47:49;4.00;;;2.50;;
74401;SDS011;62837;51.082;13.744;2022-09-11T15:50:20;4.30;;;2.90;;
74401;SDS011;62837;51.082;13.744;2022-09-11T15:52:54;3.40;;;2.20;;
74401;SDS011;62837;51.082;13.744;2022-09-11T15:55:25;3.40;;;1.90;;
74401;SDS011;62837;51.082;13.744;2022-09-11T15:57:56;4.80;;;2.20;;
74401;SDS011;62837;51.082;13.744;2022-09-11T16:00:29;4.40;;;2.70;;